createdAt,value
2022-08-14T00:02:21.047Z,20.95
2022-08-14T00:04:47.557Z,15.05
2022-08-14T00:07:14.597Z,16.17
2022-08-14T00:10:01.830Z,17.27
2022-08-14T00:12:33.792Z,16.83
2022-08-14T00:15:15.193Z,15.27
2022-08-14T00:17:48.150Z,20.02
2022-08-14T00:20:23.384Z,15.77
2022-08-14T00:22:57.490Z,19.10
2022-08-14T00:25:24.463Z,13.98
2022-08-14T00:27:56.954Z,14.98
2022-08-14T00:30:23.313Z,17.25
2022-08-14T00:32:56.629Z,16.77
2022-08-14T00:35:43.024Z,14.38
2022-08-14T00:38:09.288Z,13.30
2022-08-14T00:40:36.237Z,11.98
2022-08-14T00:43:02.694Z,15.88
2022-08-14T00:45:30.471Z,13.75
2022-08-14T00:47:57.467Z,17.08
2022-08-14T00:50:26.399Z,13.40
2022-08-14T00:52:54.420Z,14.68
2022-08-14T00:55:20.714Z,13.80
2022-08-14T00:57:47.056Z,15.75
2022-08-14T01:00:34.330Z,15.52
2022-08-14T01:03:03.399Z,16.05
2022-08-14T01:05:41.760Z,15.50
2022-08-14T01:08:50.605Z,21.60
2022-08-14T01:11:02.202Z,14.88
2022-08-14T01:13:42.258Z,19.83
2022-08-14T01:16:09.363Z,26.60
2022-08-14T01:18:40.242Z,17.05
2022-08-14T01:21:06.477Z,14.05
2022-08-14T01:23:41.672Z,22.98
2022-08-14T01:26:12.722Z,17.70
2022-08-14T01:28:56.791Z,15.30
2022-08-14T01:31:24.050Z,12.73
2022-08-14T01:35:15.773Z,15.57
2022-08-14T01:36:36.768Z,16.30
2022-08-14T01:39:03.362Z,19.02
2022-08-14T01:41:36.074Z,19.13
2022-08-14T01:44:02.478Z,13.77
2022-08-14T01:46:33.489Z,14.65
2022-08-14T01:49:03.168Z,17.95
2022-08-14T01:51:29.441Z,14.63
2022-08-14T01:53:56.419Z,15.25
2022-08-14T01:56:22.864Z,16.02
2022-08-14T01:58:58.169Z,13.30
2022-08-14T02:01:26.448Z,14.38
2022-08-14T02:03:53.387Z,15.50
2022-08-14T02:06:33.257Z,15.55
2022-08-14T02:09:00.047Z,18.48
2022-08-14T02:11:26.368Z,20.65
2022-08-14T02:13:52.703Z,18.15
2022-08-14T02:16:22.300Z,15.55
2022-08-14T02:18:49.540Z,17.63
2022-08-14T02:21:15.799Z,18.55
2022-08-14T02:23:45.796Z,17.00
2022-08-14T02:26:24.340Z,16.10
2022-08-14T02:28:57.617Z,14.45
2022-08-14T02:31:36.007Z,14.15
2022-08-14T02:34:02.760Z,14.85
2022-08-14T02:37:02.639Z,17.98
2022-08-14T02:39:27.759Z,19.85
2022-08-14T02:41:58.016Z,18.33
2022-08-14T02:44:29.600Z,19.75
2022-08-14T02:47:01.491Z,14.05
2022-08-14T02:49:34.287Z,16.58
2022-08-14T02:52:00.666Z,16.00
2022-08-14T02:54:26.909Z,19.70
2022-08-14T02:57:13.934Z,14.35
2022-08-14T02:59:39.592Z,17.27
2022-08-14T03:02:09.647Z,16.85
2022-08-14T03:04:55.864Z,16.75
2022-08-14T03:07:22.127Z,17.20
2022-08-14T03:10:27.680Z,17.42
2022-08-14T03:12:36.403Z,18.40
2022-08-14T03:15:02.630Z,16.13
2022-08-14T03:17:31.924Z,17.15
2022-08-14T03:20:07.677Z,18.63
2022-08-14T03:22:37.788Z,19.48
2022-08-14T03:25:08.219Z,17.25
2022-08-14T03:27:48.423Z,16.80
2022-08-14T03:30:23.657Z,16.35
2022-08-14T03:32:49.988Z,16.92
2022-08-14T03:35:17.757Z,20.50
2022-08-14T03:39:10.616Z,18.40
2022-08-14T03:40:30.260Z,16.20
2022-08-14T03:42:56.488Z,17.75
2022-08-14T03:45:34.686Z,17.45
2022-08-14T03:48:01.612Z,18.33
2022-08-14T03:50:31.708Z,15.50
2022-08-14T03:53:00.574Z,14.70
2022-08-14T03:55:27.100Z,16.13
2022-08-14T03:57:53.843Z,16.30
2022-08-14T04:00:43.549Z,15.32
2022-08-14T04:03:06.528Z,16.52
2022-08-14T04:05:38.060Z,15.10
2022-08-14T04:08:28.988Z,14.23
2022-08-14T04:10:55.702Z,14.02
2022-08-14T04:13:23.727Z,16.52
2022-08-14T04:15:56.135Z,14.98
2022-08-14T04:18:28.634Z,20.83
2022-08-14T04:20:55.988Z,17.15
2022-08-14T04:23:23.771Z,16.60
2022-08-14T04:25:56.374Z,25.35
2022-08-14T04:29:07.767Z,15.73
2022-08-14T04:31:09.035Z,16.35
2022-08-14T04:33:37.262Z,14.88
2022-08-14T04:36:03.614Z,15.55
2022-08-14T04:38:37.268Z,14.90
2022-08-14T04:41:04.748Z,15.90
2022-08-14T04:43:38.297Z,18.20
2022-08-14T04:46:05.168Z,19.73
2022-08-14T04:48:43.254Z,14.52
2022-08-14T04:51:17.448Z,14.23
2022-08-14T04:53:43.912Z,16.15
2022-08-14T04:56:30.675Z,15.15
2022-08-14T04:58:57.221Z,15.18
2022-08-14T05:01:23.493Z,18.63
2022-08-14T05:03:51.387Z,16.13
2022-08-14T05:06:35.058Z,19.17
2022-08-14T05:09:04.038Z,13.45
2022-08-14T05:11:31.111Z,16.95
2022-08-14T05:14:34.141Z,16.55
2022-08-14T05:16:43.657Z,16.55
2022-08-14T05:19:18.489Z,14.02
2022-08-14T05:21:57.031Z,19.40
2022-08-14T05:24:25.447Z,15.38
2022-08-14T05:26:51.685Z,17.92
2022-08-14T05:29:17.967Z,17.15
2022-08-14T05:31:44.440Z,21.17
2022-08-14T05:34:10.666Z,17.70
2022-08-14T05:36:38.016Z,19.45
2022-08-14T05:39:05.820Z,17.98
2022-08-14T05:41:52.352Z,17.23
2022-08-14T05:44:20.361Z,16.75
2022-08-14T05:46:46.571Z,16.35
2022-08-14T05:49:13.172Z,16.23
2022-08-14T05:51:39.487Z,17.27
2022-08-14T05:54:13.902Z,17.80
2022-08-14T05:56:52.047Z,26.42
2022-08-14T05:59:18.336Z,19.30
2022-08-14T06:01:45.685Z,18.27
2022-08-14T06:04:12.932Z,16.77
2022-08-14T06:06:42.021Z,16.52
2022-08-14T06:09:09.829Z,19.90
2022-08-14T06:11:36.475Z,16.40
2022-08-14T06:14:02.997Z,21.88
2022-08-14T06:16:29.987Z,20.83
2022-08-14T06:18:59.705Z,18.05
2022-08-14T06:21:26.885Z,18.25
2022-08-14T06:23:53.626Z,18.25
2022-08-14T06:26:20.876Z,16.55
2022-08-14T06:28:51.821Z,17.55
2022-08-14T06:31:18.975Z,19.17
2022-08-14T06:35:02.116Z,16.80
2022-08-14T06:36:33.014Z,18.25
2022-08-14T06:38:59.506Z,25.45
2022-08-14T06:41:57.625Z,19.70
2022-08-14T06:44:12.567Z,22.73
2022-08-14T06:46:38.832Z,17.95
2022-08-14T06:49:05.129Z,15.70
2022-08-14T06:51:38.896Z,21.27
2022-08-14T06:54:10.732Z,18.13
2022-08-14T06:56:38.264Z,15.85
2022-08-14T06:59:05.370Z,17.75
2022-08-14T07:01:32.657Z,28.63
2022-08-14T07:03:59.351Z,14.50
2022-08-14T07:06:46.540Z,16.00
2022-08-14T07:09:11.920Z,15.27
2022-08-14T07:11:38.205Z,17.05
2022-08-14T07:14:04.511Z,16.90
2022-08-14T07:16:31.264Z,17.70
2022-08-14T07:18:57.858Z,15.52
2022-08-14T07:21:25.018Z,16.10
2022-08-14T07:23:51.486Z,15.20
2022-08-14T07:26:17.859Z,20.13
2022-08-14T07:28:44.186Z,18.55
2022-08-14T07:31:10.547Z,17.25
2022-08-14T07:33:36.898Z,15.40
2022-08-14T07:36:03.440Z,15.27
2022-08-14T07:38:52.355Z,23.83
2022-08-14T07:41:18.820Z,11.43
2022-08-14T07:43:53.081Z,16.90
2022-08-14T07:46:29.444Z,15.13
2022-08-14T07:48:57.187Z,16.05
2022-08-14T07:51:23.444Z,15.48
2022-08-14T07:53:50.040Z,18.77
2022-08-14T07:56:44.240Z,19.55
2022-08-14T07:59:09.832Z,15.73
2022-08-14T08:01:36.253Z,14.73
2022-08-14T08:04:03.339Z,16.15
2022-08-14T08:06:29.781Z,17.10
2022-08-14T08:09:01.334Z,17.65
2022-08-14T08:11:29.607Z,13.38
2022-08-14T08:14:01.589Z,14.73
2022-08-14T08:16:27.797Z,12.15
2022-08-14T08:18:58.686Z,16.45
2022-08-14T08:21:33.195Z,17.17
2022-08-14T08:24:01.719Z,13.93
2022-08-14T08:26:29.868Z,14.00
2022-08-14T08:28:56.109Z,13.80
2022-08-14T08:31:23.833Z,19.13
2022-08-14T08:33:59.386Z,12.65
2022-08-14T08:36:25.590Z,14.05
2022-08-14T08:39:16.877Z,11.93
2022-08-14T08:41:43.412Z,13.93
2022-08-14T08:44:30.076Z,13.23
2022-08-14T08:46:55.963Z,15.80
2022-08-14T08:49:22.559Z,13.93
2022-08-14T08:51:49.483Z,12.57
2022-08-14T08:54:19.952Z,11.65
2022-08-14T08:56:49.969Z,12.23
2022-08-14T08:59:18.206Z,16.35
2022-08-14T09:01:46.663Z,14.38
2022-08-14T09:04:18.612Z,14.80
2022-08-14T09:07:09.309Z,18.80
2022-08-14T09:09:33.984Z,14.98
2022-08-14T09:12:19.318Z,12.18
2022-08-14T09:14:45.719Z,11.13
2022-08-14T09:17:14.542Z,17.17
2022-08-14T09:19:41.328Z,11.00
2022-08-14T09:22:35.681Z,26.13
2022-08-14T09:24:53.954Z,11.25
2022-08-14T09:27:22.641Z,19.85
2022-08-14T09:29:54.224Z,13.05
2022-08-14T09:32:59.300Z,12.60
2022-08-14T09:35:08.366Z,12.30
2022-08-14T09:37:34.926Z,13.60
2022-08-14T09:40:01.215Z,13.40
2022-08-14T09:42:34.044Z,10.80
2022-08-14T09:45:11.554Z,16.55
2022-08-14T09:47:38.475Z,10.63
2022-08-14T09:50:08.122Z,10.18
2022-08-14T09:52:34.609Z,8.32
2022-08-14T09:55:01.003Z,8.63
2022-08-14T09:57:27.674Z,8.88
2022-08-14T09:59:55.165Z,14.35
2022-08-14T10:02:21.407Z,8.55
2022-08-14T10:04:49.927Z,11.15
2022-08-14T10:07:16.417Z,8.50
2022-08-14T10:09:42.659Z,7.57
2022-08-14T10:12:28.986Z,9.32
2022-08-14T10:14:55.569Z,9.52
2022-08-14T10:17:21.803Z,7.18
2022-08-14T10:19:49.927Z,8.07
2022-08-14T10:23:13.697Z,14.90
2022-08-14T10:25:02.515Z,9.65
2022-08-14T10:27:29.135Z,9.60
2022-08-14T10:29:55.503Z,11.38
2022-08-14T10:32:36.135Z,7.90
2022-08-14T10:35:02.823Z,9.27
2022-08-14T10:37:31.661Z,11.02
2022-08-14T10:40:02.051Z,11.63
2022-08-14T10:42:36.552Z,8.50
2022-08-14T10:45:04.358Z,9.15
2022-08-14T10:47:39.478Z,10.43
2022-08-14T10:50:16.822Z,8.50
2022-08-14T10:52:43.276Z,14.40
2022-08-14T10:55:09.582Z,11.13
2022-08-14T10:57:39.053Z,11.10
2022-08-14T11:00:05.276Z,10.20
2022-08-14T11:02:50.263Z,8.05
2022-08-14T11:05:18.720Z,13.35
2022-08-14T11:07:45.053Z,12.52
2022-08-14T11:10:11.258Z,8.23
2022-08-14T11:12:40.758Z,7.22
2022-08-14T11:15:07.009Z,7.93
2022-08-14T11:17:34.356Z,8.55
2022-08-14T11:20:00.564Z,8.32
2022-08-14T11:22:57.066Z,8.55
2022-08-14T11:25:12.992Z,10.48
2022-08-14T11:27:41.536Z,7.53
2022-08-14T11:30:49.257Z,8.15
2022-08-14T11:32:54.385Z,8.80
2022-08-14T11:35:21.214Z,5.03
2022-08-14T11:37:47.473Z,9.02
2022-08-14T11:40:15.381Z,11.02
2022-08-14T11:42:58.445Z,6.88
2022-08-14T11:45:29.708Z,14.20
2022-08-14T11:48:13.239Z,10.95
2022-08-14T11:50:42.395Z,9.48
2022-08-14T11:53:09.710Z,10.13
2022-08-14T11:55:40.023Z,7.72
2022-08-14T11:58:06.907Z,12.65
2022-08-14T12:00:39.533Z,7.65
2022-08-14T12:03:14.791Z,11.02
2022-08-14T12:05:43.245Z,7.95
2022-08-14T12:08:11.118Z,9.02
2022-08-14T12:10:43.099Z,10.65
2022-08-14T12:13:09.757Z,8.25
2022-08-14T12:15:36.286Z,7.68
2022-08-14T12:18:02.547Z,10.10
2022-08-14T12:20:32.523Z,6.28
2022-08-14T12:22:59.087Z,8.50
2022-08-14T12:25:26.460Z,8.88
2022-08-14T12:27:54.290Z,8.35
2022-08-14T12:30:21.626Z,20.63
2022-08-14T12:32:47.973Z,9.65
2022-08-14T12:35:14.555Z,7.95
2022-08-14T12:37:43.307Z,8.90
2022-08-14T12:40:09.816Z,27.30
2022-08-14T12:42:36.433Z,7.88
2022-08-14T12:45:06.861Z,9.10
2022-08-14T12:47:33.148Z,7.85
2022-08-14T12:49:59.385Z,10.68
2022-08-14T12:52:36.345Z,5.55
2022-08-14T12:55:11.866Z,8.88
2022-08-14T12:57:38.165Z,5.93
2022-08-14T13:00:04.806Z,7.63
2022-08-14T13:02:50.164Z,4.13
2022-08-14T13:05:21.740Z,5.93
2022-08-14T13:07:49.905Z,5.88
2022-08-14T13:10:51.250Z,6.22
2022-08-14T13:13:13.525Z,7.35
2022-08-14T13:15:42.039Z,7.13
2022-08-14T13:18:10.865Z,8.77
2022-08-14T13:20:37.169Z,4.82
2022-08-14T13:23:03.826Z,5.50
2022-08-14T13:25:30.408Z,7.68
2022-08-14T13:27:56.626Z,4.20
2022-08-14T13:30:24.372Z,6.47
2022-08-14T13:32:50.968Z,4.38
2022-08-14T13:35:17.639Z,4.00
2022-08-14T13:37:44.240Z,8.25
2022-08-14T13:40:11.022Z,6.57
2022-08-14T13:42:37.711Z,5.25
2022-08-14T13:45:05.223Z,9.45
2022-08-14T13:47:31.521Z,5.18
2022-08-14T13:49:58.443Z,7.45
2022-08-14T13:52:52.136Z,10.73
2022-08-14T13:55:13.888Z,7.22
2022-08-14T14:00:17.894Z,8.60
2022-08-14T14:02:45.784Z,8.68
2022-08-14T14:05:12.347Z,6.30
2022-08-14T14:07:43.478Z,4.70
2022-08-14T14:10:10.405Z,6.57
2022-08-14T14:12:40.735Z,6.75
2022-08-14T14:15:07.805Z,5.15
2022-08-14T14:17:36.027Z,8.20
2022-08-14T14:20:04.608Z,8.43
2022-08-14T14:22:35.973Z,4.40
2022-08-14T14:25:19.550Z,6.13
2022-08-14T14:27:48.925Z,3.97
2022-08-14T14:30:45.968Z,3.95
2022-08-14T14:33:14.395Z,3.72
2022-08-14T14:35:52.570Z,9.93
2022-08-14T14:38:18.891Z,7.75
2022-08-14T14:40:52.664Z,5.75
2022-08-14T14:43:21.372Z,6.80
2022-08-14T14:45:49.973Z,4.47
2022-08-14T14:50:45.813Z,4.85
2022-08-14T14:53:13.169Z,6.63
2022-08-14T14:55:54.214Z,7.65
2022-08-14T14:58:26.242Z,3.95
2022-08-14T15:00:53.362Z,4.82
2022-08-14T15:03:21.337Z,6.85
2022-08-14T15:05:47.690Z,9.23
2022-08-14T15:08:17.138Z,6.13
2022-08-14T15:10:53.266Z,9.05
2022-08-14T15:13:19.579Z,7.07
2022-08-14T15:15:47.880Z,3.97
2022-08-14T15:18:39.218Z,6.18
2022-08-14T15:21:05.386Z,6.90
2022-08-14T15:23:43.891Z,9.82
2022-08-14T15:28:39.713Z,4.38
2022-08-14T15:31:06.058Z,5.18
2022-08-14T15:33:35.654Z,5.80
2022-08-14T15:36:02.328Z,4.35
2022-08-14T15:38:29.278Z,5.13
2022-08-14T15:40:56.316Z,4.95
2022-08-14T15:43:22.752Z,7.68
2022-08-14T15:45:53.566Z,3.95
2022-08-14T15:48:22.537Z,3.80
2022-08-14T15:50:50.969Z,8.10
2022-08-14T15:53:18.082Z,7.27
2022-08-14T15:55:45.993Z,5.90
2022-08-14T15:58:14.570Z,6.40
2022-08-14T16:00:44.303Z,4.20
2022-08-14T16:03:16.813Z,4.75
2022-08-14T16:05:43.218Z,6.72
2022-08-14T16:08:26.813Z,5.00
2022-08-14T16:10:55.749Z,5.65
2022-08-14T16:13:42.042Z,5.10
2022-08-14T16:16:48.929Z,9.20
2022-08-14T16:18:54.612Z,4.90
2022-08-14T16:21:20.883Z,5.30
2022-08-14T16:23:48.219Z,6.25
2022-08-14T16:26:19.985Z,8.13
2022-08-14T16:28:46.455Z,6.22
2022-08-14T16:31:17.616Z,7.35
2022-08-14T16:33:59.697Z,5.82
2022-08-14T16:36:30.231Z,9.88
2022-08-14T16:38:57.293Z,6.45
2022-08-14T16:41:26.422Z,6.57
2022-08-14T16:43:53.035Z,7.72
2022-08-14T16:46:22.429Z,5.68
2022-08-14T16:48:57.005Z,7.70
2022-08-14T16:51:24.893Z,7.50
2022-08-14T16:53:51.369Z,6.82
2022-08-14T16:56:23.678Z,10.35
2022-08-14T16:58:50.551Z,8.93
2022-08-14T17:01:24.377Z,9.27
2022-08-14T17:03:51.315Z,7.07
2022-08-14T17:06:30.561Z,9.50
2022-08-14T17:08:59.769Z,9.30
2022-08-14T17:11:27.765Z,8.15
2022-08-14T17:14:00.565Z,6.35
2022-08-14T17:16:27.540Z,9.13
2022-08-14T17:19:00.019Z,7.43
2022-08-14T17:21:31.766Z,7.25
2022-08-14T17:23:58.669Z,7.57
2022-08-14T17:26:27.262Z,15.45
2022-08-14T17:28:56.702Z,10.82
2022-08-14T17:31:57.978Z,7.40
2022-08-14T17:34:20.452Z,7.07
2022-08-14T17:36:46.782Z,8.82
2022-08-14T17:39:14.751Z,8.23
2022-08-14T17:41:43.708Z,8.32
2022-08-14T17:46:37.185Z,10.40
2022-08-14T17:49:16.255Z,7.13
2022-08-14T17:51:53.827Z,7.95
2022-08-14T17:54:22.448Z,9.60
2022-08-14T17:56:49.230Z,12.35
2022-08-14T17:59:17.681Z,8.10
2022-08-14T18:01:45.830Z,8.73
2022-08-14T18:04:27.635Z,6.93
2022-08-14T18:06:58.624Z,8.15
2022-08-14T18:09:35.510Z,7.68
2022-08-14T18:12:01.735Z,9.05
2022-08-14T18:14:32.360Z,9.68
2022-08-14T18:17:16.040Z,11.13
2022-08-14T18:19:42.375Z,10.95
2022-08-14T18:22:31.265Z,8.70
2022-08-14T18:24:54.861Z,13.13
2022-08-14T18:27:23.055Z,21.08
2022-08-14T18:29:55.371Z,11.35
2022-08-14T18:32:22.142Z,11.70
2022-08-14T18:34:51.173Z,8.68
2022-08-14T18:37:18.334Z,14.35
2022-08-14T18:40:03.600Z,8.65
2022-08-14T18:42:30.739Z,8.00
2022-08-14T18:44:57.005Z,11.35
2022-08-14T18:47:23.743Z,10.38
2022-08-14T18:49:51.980Z,8.53
2022-08-14T18:52:18.664Z,9.07
2022-08-14T18:54:48.683Z,7.93
2022-08-14T18:57:26.354Z,10.68
2022-08-14T18:59:54.094Z,12.25
2022-08-14T19:02:24.690Z,9.00
2022-08-14T19:04:57.145Z,13.40
2022-08-14T19:07:25.427Z,9.98
2022-08-14T19:09:51.830Z,8.90
2022-08-14T19:12:27.548Z,11.25
2022-08-14T19:14:54.898Z,12.20
2022-08-14T19:17:21.166Z,13.35
2022-08-14T19:19:48.538Z,9.57
2022-08-14T19:22:20.454Z,11.50
2022-08-14T19:24:56.264Z,9.27
2022-08-14T19:27:25.183Z,12.02
2022-08-14T19:29:52.677Z,11.40
2022-08-14T19:32:19.101Z,13.00
2022-08-14T19:34:48.029Z,9.65
2022-08-14T19:37:18.360Z,10.77
2022-08-14T19:39:48.453Z,11.20
2022-08-14T19:42:28.350Z,8.50
2022-08-14T19:44:56.927Z,12.40
2022-08-14T19:47:23.999Z,8.43
2022-08-14T19:50:07.898Z,21.17
2022-08-14T19:52:37.342Z,10.10
2022-08-14T19:55:05.804Z,9.75
2022-08-14T19:57:32.836Z,9.93
2022-08-14T19:59:59.135Z,9.75
2022-08-14T20:02:30.057Z,10.40
2022-08-14T20:04:57.903Z,11.25
2022-08-14T20:07:24.244Z,9.48
2022-08-14T20:11:07.095Z,9.55
2022-08-14T20:12:58.097Z,11.65
2022-08-14T20:15:24.604Z,13.60
2022-08-14T20:17:52.555Z,12.38
2022-08-14T20:20:30.565Z,13.27
2022-08-14T20:22:57.746Z,12.40
2022-08-14T20:25:28.218Z,9.63
2022-08-14T20:27:59.768Z,11.43
2022-08-14T20:30:34.124Z,11.82
2022-08-14T20:33:01.910Z,12.07
2022-08-14T20:35:35.519Z,17.25
2022-08-14T20:38:31.659Z,9.70
2022-08-14T20:40:50.279Z,12.50
2022-08-14T20:43:16.944Z,17.17
2022-08-14T20:45:43.196Z,12.85
2022-08-14T20:48:10.121Z,11.50
2022-08-14T20:50:44.923Z,11.25
2022-08-14T20:53:11.497Z,17.63
2022-08-14T20:55:41.780Z,12.25
2022-08-14T20:58:41.899Z,17.50
2022-08-14T21:00:57.855Z,13.25
2022-08-14T21:03:24.273Z,12.20
2022-08-14T21:05:56.716Z,13.05
2022-08-14T21:08:26.130Z,13.45
2022-08-14T21:10:52.526Z,11.70
2022-08-14T21:14:08.815Z,11.67
2022-08-14T21:16:33.256Z,11.38
2022-08-14T21:18:53.699Z,12.10
2022-08-14T21:21:19.944Z,13.52
2022-08-14T21:23:54.018Z,17.55
2022-08-14T21:26:51.173Z,12.45
2022-08-14T21:29:08.044Z,11.90
2022-08-14T21:31:34.270Z,12.85
2022-08-14T21:34:01.281Z,18.77
2022-08-14T21:36:31.902Z,15.30
2022-08-14T21:38:58.249Z,15.73
2022-08-14T21:41:43.241Z,17.70
2022-08-14T21:44:17.468Z,11.68
2022-08-14T21:46:44.667Z,16.35
2022-08-14T21:49:10.912Z,13.52
2022-08-14T21:51:53.452Z,12.27
2022-08-14T21:54:31.839Z,15.13
2022-08-14T21:56:58.843Z,13.23
2022-08-14T21:59:28.971Z,18.75
2022-08-14T22:02:01.082Z,17.15
2022-08-14T22:04:33.347Z,12.70
2022-08-14T22:07:01.194Z,16.85
2022-08-14T22:09:32.356Z,16.50
2022-08-14T22:11:58.997Z,13.88
2022-08-14T22:14:26.562Z,17.70
2022-08-14T22:17:03.307Z,14.63
2022-08-14T22:19:47.208Z,14.18
2022-08-14T22:22:20.859Z,11.75
2022-08-14T22:24:53.946Z,14.25
2022-08-14T22:27:26.110Z,15.80
2022-08-14T22:29:54.715Z,16.10
2022-08-14T22:32:35.006Z,14.10
2022-08-14T22:35:10.291Z,16.17
2022-08-14T22:37:36.674Z,14.05
2022-08-14T22:40:50.732Z,12.85
2022-08-14T22:42:59.904Z,14.15
2022-08-14T22:45:27.068Z,13.70
2022-08-14T22:48:03.064Z,11.65
2022-08-14T22:50:33.652Z,13.20
2022-08-14T22:53:00.268Z,17.10
2022-08-14T22:55:26.768Z,16.50
2022-08-14T22:57:53.085Z,14.52
2022-08-14T23:00:19.653Z,15.13
2022-08-14T23:02:46.050Z,13.88
2022-08-14T23:05:12.464Z,14.95
2022-08-14T23:09:01.722Z,18.35
2022-08-14T23:10:32.472Z,18.70
2022-08-14T23:13:00.491Z,15.10
2022-08-14T23:15:29.913Z,17.35
2022-08-14T23:17:56.719Z,18.05
2022-08-14T23:20:22.961Z,17.60
2022-08-14T23:22:49.182Z,23.63
2022-08-14T23:25:17.902Z,19.30
2022-08-14T23:28:03.306Z,20.10
2022-08-14T23:30:31.877Z,18.77
2022-08-14T23:33:01.776Z,15.95
2022-08-14T23:35:28.112Z,19.35
2022-08-14T23:37:54.387Z,16.60
2022-08-14T23:40:29.644Z,15.10
2022-08-14T23:42:56.574Z,19.17
2022-08-14T23:45:37.146Z,15.75
2022-08-14T23:48:03.836Z,17.00
2022-08-14T23:50:34.196Z,21.65
2022-08-14T23:53:07.439Z,18.42
2022-08-14T23:55:34.662Z,17.40
2022-08-14T23:58:01.150Z,19.30
